sensor_id;sensor_type;location;lat;lon;timestamp;P1;durP1;ratioP1;P2;durP2;ratioP2
44048;SDS011;29717;47.028;15.470;2024-03-06T00:00:36;18.50;;;14.65;;
44048;SDS011;29717;47.028;15.470;2024-03-06T00:03:03;23.40;;;15.10;;
44048;SDS011;29717;47.028;15.470;2024-03-06T00:05:30;24.00;;;14.97;;
44048;SDS011;29717;47.028;15.470;2024-03-06T00:07:56;20.00;;;14.47;;
44048;SDS011;29717;47.028;15.470;2024-03-06T00:10:23;20.63;;;13.87;;
44048;SDS011;29717;47.028;15.470;2024-03-06T00:12:53;18.00;;;14.83;;
44048;SDS011;29717;47.028;15.470;2024-03-06T00:15:21;20.80;;;14.67;;
44048;SDS011;29717;47.028;15.470;2024-03-06T00:17:47;19.37;;;14.37;;
44048;SDS011;29717;47.028;15.470;2024-03-06T00:20:14;17.83;;;14.00;;
44048;SDS011;29717;47.028;15.470;2024-03-06T00:22:41;20.77;;;15.07;;
44048;SDS011;29717;47.028;15.470;2024-03-06T00:25:08;16.60;;;13.50;;
44048;SDS011;29717;47.028;15.470;2024-03-06T00:27:34;17.60;;;13.97;;
44048;SDS011;29717;47.028;15.470;2024-03-06T00:30:03;19.33;;;14.23;;
44048;SDS011;29717;47.028;15.470;2024-03-06T00:32:30;19.53;;;14.93;;
44048;SDS011;29717;47.028;15.470;2024-03-06T00:34:57;21.35;;;14.82;;
44048;SDS011;29717;47.028;15.470;2024-03-06T00:37:23;21.42;;;15.32;;
44048;SDS011;29717;47.028;15.470;2024-03-06T00:39:50;20.00;;;15.70;;
44048;SDS011;29717;47.028;15.470;2024-03-06T00:42:17;20.63;;;15.97;;
44048;SDS011;29717;47.028;15.470;2024-03-06T00:44:44;23.67;;;15.43;;
44048;SDS011;29717;47.028;15.470;2024-03-06T00:47:12;17.73;;;14.37;;
44048;SDS011;29717;47.028;15.470;2024-03-06T00:49:39;18.77;;;14.43;;
44048;SDS011;29717;47.028;15.470;2024-03-06T00:52:07;19.63;;;15.60;;
44048;SDS011;29717;47.028;15.470;2024-03-06T00:54:34;22.63;;;15.83;;
44048;SDS011;29717;47.028;15.470;2024-03-06T00:57:01;23.60;;;16.47;;
44048;SDS011;29717;47.028;15.470;2024-03-06T00:59:28;22.57;;;16.40;;
44048;SDS011;29717;47.028;15.470;2024-03-06T01:01:55;25.77;;;16.80;;
44048;SDS011;29717;47.028;15.470;2024-03-06T01:04:23;21.50;;;15.57;;
44048;SDS011;29717;47.028;15.470;2024-03-06T01:06:50;19.87;;;15.37;;
44048;SDS011;29717;47.028;15.470;2024-03-06T01:09:17;19.90;;;15.47;;
44048;SDS011;29717;47.028;15.470;2024-03-06T01:11:43;22.53;;;15.70;;
44048;SDS011;29717;47.028;15.470;2024-03-06T01:14:12;21.47;;;15.87;;
44048;SDS011;29717;47.028;15.470;2024-03-06T01:16:38;23.80;;;16.30;;
44048;SDS011;29717;47.028;15.470;2024-03-06T01:19:05;22.45;;;15.77;;
44048;SDS011;29717;47.028;15.470;2024-03-06T01:21:33;24.13;;;16.83;;
44048;SDS011;29717;47.028;15.470;2024-03-06T01:24:00;20.60;;;15.10;;
44048;SDS011;29717;47.028;15.470;2024-03-06T01:26:27;22.37;;;15.87;;
44048;SDS011;29717;47.028;15.470;2024-03-06T01:28:54;22.90;;;17.10;;
44048;SDS011;29717;47.028;15.470;2024-03-06T01:31:21;22.97;;;17.33;;
44048;SDS011;29717;47.028;15.470;2024-03-06T01:33:47;20.87;;;15.73;;
44048;SDS011;29717;47.028;15.470;2024-03-06T01:36:14;22.53;;;15.97;;
44048;SDS011;29717;47.028;15.470;2024-03-06T01:38:42;19.17;;;15.93;;
44048;SDS011;29717;47.028;15.470;2024-03-06T01:41:11;18.23;;;15.57;;
44048;SDS011;29717;47.028;15.470;2024-03-06T01:43:38;20.10;;;15.87;;
44048;SDS011;29717;47.028;15.470;2024-03-06T01:46:05;23.07;;;16.53;;
44048;SDS011;29717;47.028;15.470;2024-03-06T01:48:32;20.47;;;15.67;;
44048;SDS011;29717;47.028;15.470;2024-03-06T01:51:01;21.43;;;15.23;;
44048;SDS011;29717;47.028;15.470;2024-03-06T01:53:30;19.10;;;15.37;;
44048;SDS011;29717;47.028;15.470;2024-03-06T01:55:59;23.03;;;16.33;;
44048;SDS011;29717;47.028;15.470;2024-03-06T01:58:26;23.67;;;16.30;;
44048;SDS011;29717;47.028;15.470;2024-03-06T02:00:53;19.93;;;14.77;;
44048;SDS011;29717;47.028;15.470;2024-03-06T02:03:20;23.67;;;16.50;;
44048;SDS011;29717;47.028;15.470;2024-03-06T02:05:48;21.57;;;16.83;;
44048;SDS011;29717;47.028;15.470;2024-03-06T02:08:15;26.77;;;17.33;;
44048;SDS011;29717;47.028;15.470;2024-03-06T02:10:43;23.70;;;16.90;;
44048;SDS011;29717;47.028;15.470;2024-03-06T02:13:12;22.83;;;17.47;;
44048;SDS011;29717;47.028;15.470;2024-03-06T02:15:40;23.30;;;17.50;;
44048;SDS011;29717;47.028;15.470;2024-03-06T02:18:07;23.17;;;17.47;;
44048;SDS011;29717;47.028;15.470;2024-03-06T02:20:35;23.53;;;17.87;;
44048;SDS011;29717;47.028;15.470;2024-03-06T02:23:04;20.50;;;16.20;;
44048;SDS011;29717;47.028;15.470;2024-03-06T02:25:31;22.43;;;17.10;;
44048;SDS011;29717;47.028;15.470;2024-03-06T02:27:57;21.93;;;16.80;;
44048;SDS011;29717;47.028;15.470;2024-03-06T02:30:25;24.43;;;16.83;;
44048;SDS011;29717;47.028;15.470;2024-03-06T02:32:51;27.60;;;18.87;;
44048;SDS011;29717;47.028;15.470;2024-03-06T02:35:18;23.53;;;16.73;;
44048;SDS011;29717;47.028;15.470;2024-03-06T02:37:46;21.97;;;17.13;;
44048;SDS011;29717;47.028;15.470;2024-03-06T02:40:13;23.70;;;17.30;;
44048;SDS011;29717;47.028;15.470;2024-03-06T02:42:40;23.13;;;16.57;;
44048;SDS011;29717;47.028;15.470;2024-03-06T02:45:07;23.33;;;17.07;;
44048;SDS011;29717;47.028;15.470;2024-03-06T02:47:34;24.50;;;17.73;;
44048;SDS011;29717;47.028;15.470;2024-03-06T02:50:00;23.57;;;18.67;;
44048;SDS011;29717;47.028;15.470;2024-03-06T02:52:27;23.37;;;17.60;;
44048;SDS011;29717;47.028;15.470;2024-03-06T02:54:55;24.73;;;18.20;;
44048;SDS011;29717;47.028;15.470;2024-03-06T02:57:22;27.00;;;17.83;;
44048;SDS011;29717;47.028;15.470;2024-03-06T02:59:49;23.57;;;17.30;;
44048;SDS011;29717;47.028;15.470;2024-03-06T03:02:16;23.07;;;17.40;;
44048;SDS011;29717;47.028;15.470;2024-03-06T03:04:43;23.10;;;17.50;;
44048;SDS011;29717;47.028;15.470;2024-03-06T03:07:10;24.23;;;16.90;;
44048;SDS011;29717;47.028;15.470;2024-03-06T03:09:37;23.23;;;17.50;;
44048;SDS011;29717;47.028;15.470;2024-03-06T03:12:05;24.70;;;18.30;;
44048;SDS011;29717;47.028;15.470;2024-03-06T03:14:32;25.10;;;16.70;;
44048;SDS011;29717;47.028;15.470;2024-03-06T03:16:59;22.13;;;17.53;;
44048;SDS011;29717;47.028;15.470;2024-03-06T03:19:26;23.20;;;17.33;;
44048;SDS011;29717;47.028;15.470;2024-03-06T03:21:54;26.20;;;17.23;;
44048;SDS011;29717;47.028;15.470;2024-03-06T03:24:21;23.37;;;17.13;;
44048;SDS011;29717;47.028;15.470;2024-03-06T03:26:49;22.37;;;16.80;;
44048;SDS011;29717;47.028;15.470;2024-03-06T03:29:17;20.53;;;16.07;;
44048;SDS011;29717;47.028;15.470;2024-03-06T03:31:46;23.07;;;16.20;;
44048;SDS011;29717;47.028;15.470;2024-03-06T03:34:13;21.83;;;16.50;;
44048;SDS011;29717;47.028;15.470;2024-03-06T03:36:40;22.70;;;17.33;;
44048;SDS011;29717;47.028;15.470;2024-03-06T03:39:07;24.67;;;18.20;;
44048;SDS011;29717;47.028;15.470;2024-03-06T03:41:42;26.60;;;18.77;;
44048;SDS011;29717;47.028;15.470;2024-03-06T03:44:08;23.67;;;17.77;;
44048;SDS011;29717;47.028;15.470;2024-03-06T03:46:37;22.93;;;18.27;;
44048;SDS011;29717;47.028;15.470;2024-03-06T03:49:04;28.00;;;20.43;;
44048;SDS011;29717;47.028;15.470;2024-03-06T03:51:31;24.67;;;18.53;;
44048;SDS011;29717;47.028;15.470;2024-03-06T03:53:57;23.07;;;17.77;;
44048;SDS011;29717;47.028;15.470;2024-03-06T03:56:24;25.67;;;18.40;;
44048;SDS011;29717;47.028;15.470;2024-03-06T03:58:51;26.60;;;17.73;;
44048;SDS011;29717;47.028;15.470;2024-03-06T04:01:18;26.33;;;18.83;;
44048;SDS011;29717;47.028;15.470;2024-03-06T04:03:46;24.37;;;17.73;;
44048;SDS011;29717;47.028;15.470;2024-03-06T04:06:13;22.60;;;16.90;;
44048;SDS011;29717;47.028;15.470;2024-03-06T04:08:40;24.23;;;18.37;;
44048;SDS011;29717;47.028;15.470;2024-03-06T04:11:07;24.83;;;18.77;;
44048;SDS011;29717;47.028;15.470;2024-03-06T04:13:35;25.60;;;20.03;;
44048;SDS011;29717;47.028;15.470;2024-03-06T04:16:02;25.57;;;18.40;;
44048;SDS011;29717;47.028;15.470;2024-03-06T04:18:29;25.80;;;18.03;;
44048;SDS011;29717;47.028;15.470;2024-03-06T04:21:01;26.67;;;18.47;;
44048;SDS011;29717;47.028;15.470;2024-03-06T04:23:29;25.63;;;17.73;;
44048;SDS011;29717;47.028;15.470;2024-03-06T04:25:56;27.37;;;17.33;;
44048;SDS011;29717;47.028;15.470;2024-03-06T04:28:23;26.50;;;18.67;;
44048;SDS011;29717;47.028;15.470;2024-03-06T04:30:49;23.77;;;17.60;;
44048;SDS011;29717;47.028;15.470;2024-03-06T04:33:16;29.47;;;18.87;;
44048;SDS011;29717;47.028;15.470;2024-03-06T04:35:43;27.93;;;18.87;;
44048;SDS011;29717;47.028;15.470;2024-03-06T04:38:11;28.20;;;18.73;;
44048;SDS011;29717;47.028;15.470;2024-03-06T04:40:38;29.60;;;18.77;;
44048;SDS011;29717;47.028;15.470;2024-03-06T04:43:05;26.97;;;20.00;;
44048;SDS011;29717;47.028;15.470;2024-03-06T04:45:32;26.93;;;19.47;;
44048;SDS011;29717;47.028;15.470;2024-03-06T04:47:59;31.70;;;20.87;;
44048;SDS011;29717;47.028;15.470;2024-03-06T04:50:26;34.33;;;20.43;;
44048;SDS011;29717;47.028;15.470;2024-03-06T04:52:54;28.03;;;20.23;;
44048;SDS011;29717;47.028;15.470;2024-03-06T04:55:22;25.97;;;19.70;;
44048;SDS011;29717;47.028;15.470;2024-03-06T04:57:51;27.10;;;19.33;;
44048;SDS011;29717;47.028;15.470;2024-03-06T05:00:18;26.57;;;19.27;;
44048;SDS011;29717;47.028;15.470;2024-03-06T05:02:45;27.27;;;19.10;;
44048;SDS011;29717;47.028;15.470;2024-03-06T05:05:14;24.93;;;19.17;;
44048;SDS011;29717;47.028;15.470;2024-03-06T05:07:41;29.00;;;19.70;;
44048;SDS011;29717;47.028;15.470;2024-03-06T05:10:08;30.53;;;20.87;;
44048;SDS011;29717;47.028;15.470;2024-03-06T05:12:36;26.37;;;18.43;;
44048;SDS011;29717;47.028;15.470;2024-03-06T05:15:05;27.13;;;20.17;;
44048;SDS011;29717;47.028;15.470;2024-03-06T05:17:33;27.40;;;19.17;;
44048;SDS011;29717;47.028;15.470;2024-03-06T05:20:00;26.33;;;18.77;;
44048;SDS011;29717;47.028;15.470;2024-03-06T05:22:28;24.57;;;18.43;;
44048;SDS011;29717;47.028;15.470;2024-03-06T05:24:55;27.47;;;19.17;;
44048;SDS011;29717;47.028;15.470;2024-03-06T05:27:23;24.37;;;18.77;;
44048;SDS011;29717;47.028;15.470;2024-03-06T05:29:51;26.27;;;18.67;;
44048;SDS011;29717;47.028;15.470;2024-03-06T05:32:18;37.53;;;20.60;;
44048;SDS011;29717;47.028;15.470;2024-03-06T05:34:45;30.23;;;21.73;;
44048;SDS011;29717;47.028;15.470;2024-03-06T05:37:12;30.90;;;22.27;;
44048;SDS011;29717;47.028;15.470;2024-03-06T05:39:39;30.40;;;19.73;;
44048;SDS011;29717;47.028;15.470;2024-03-06T05:42:07;29.47;;;19.90;;
44048;SDS011;29717;47.028;15.470;2024-03-06T05:44:34;30.40;;;20.43;;
44048;SDS011;29717;47.028;15.470;2024-03-06T05:47:02;29.43;;;20.47;;
44048;SDS011;29717;47.028;15.470;2024-03-06T05:49:29;26.93;;;19.00;;
44048;SDS011;29717;47.028;15.470;2024-03-06T05:51:57;34.20;;;20.87;;
44048;SDS011;29717;47.028;15.470;2024-03-06T05:54:24;35.53;;;20.17;;
44048;SDS011;29717;47.028;15.470;2024-03-06T05:56:51;37.57;;;21.53;;
44048;SDS011;29717;47.028;15.470;2024-03-06T05:59:19;30.70;;;19.87;;
44048;SDS011;29717;47.028;15.470;2024-03-06T06:01:46;33.60;;;21.13;;
44048;SDS011;29717;47.028;15.470;2024-03-06T06:04:14;29.13;;;21.83;;
44048;SDS011;29717;47.028;15.470;2024-03-06T06:06:41;33.67;;;21.27;;
44048;SDS011;29717;47.028;15.470;2024-03-06T06:09:07;29.27;;;20.63;;
44048;SDS011;29717;47.028;15.470;2024-03-06T06:11:38;35.27;;;22.73;;
44048;SDS011;29717;47.028;15.470;2024-03-06T06:14:05;25.63;;;19.23;;
44048;SDS011;29717;47.028;15.470;2024-03-06T06:16:35;29.43;;;20.40;;
44048;SDS011;29717;47.028;15.470;2024-03-06T06:19:02;27.13;;;19.20;;
44048;SDS011;29717;47.028;15.470;2024-03-06T06:21:30;29.27;;;20.67;;
44048;SDS011;29717;47.028;15.470;2024-03-06T06:23:57;33.57;;;20.47;;
44048;SDS011;29717;47.028;15.470;2024-03-06T06:26:24;25.90;;;19.90;;
44048;SDS011;29717;47.028;15.470;2024-03-06T06:28:50;31.33;;;20.03;;
44048;SDS011;29717;47.028;15.470;2024-03-06T06:31:17;34.80;;;20.63;;
44048;SDS011;29717;47.028;15.470;2024-03-06T06:33:44;31.13;;;20.30;;
44048;SDS011;29717;47.028;15.470;2024-03-06T06:36:12;29.83;;;20.00;;
44048;SDS011;29717;47.028;15.470;2024-03-06T06:38:40;28.93;;;19.97;;
44048;SDS011;29717;47.028;15.470;2024-03-06T06:41:07;29.07;;;21.40;;
44048;SDS011;29717;47.028;15.470;2024-03-06T06:43:34;35.75;;;21.63;;
44048;SDS011;29717;47.028;15.470;2024-03-06T06:46:00;30.70;;;21.57;;
44048;SDS011;29717;47.028;15.470;2024-03-06T06:48:30;32.58;;;21.80;;
44048;SDS011;29717;47.028;15.470;2024-03-06T06:50:58;29.47;;;21.37;;
44048;SDS011;29717;47.028;15.470;2024-03-06T06:53:25;32.73;;;21.47;;
44048;SDS011;29717;47.028;15.470;2024-03-06T06:55:53;33.47;;;22.15;;
44048;SDS011;29717;47.028;15.470;2024-03-06T06:58:20;33.10;;;22.53;;
44048;SDS011;29717;47.028;15.470;2024-03-06T07:00:47;37.25;;;21.92;;
44048;SDS011;29717;47.028;15.470;2024-03-06T07:03:14;34.95;;;21.67;;
44048;SDS011;29717;47.028;15.470;2024-03-06T07:05:41;32.83;;;21.05;;
44048;SDS011;29717;47.028;15.470;2024-03-06T07:08:08;31.65;;;20.20;;
44048;SDS011;29717;47.028;15.470;2024-03-06T07:10:34;25.95;;;18.73;;
44048;SDS011;29717;47.028;15.470;2024-03-06T07:13:03;28.90;;;19.95;;
44048;SDS011;29717;47.028;15.470;2024-03-06T07:15:31;27.05;;;19.70;;
44048;SDS011;29717;47.028;15.470;2024-03-06T07:17:58;26.33;;;21.00;;
44048;SDS011;29717;47.028;15.470;2024-03-06T07:20:25;28.00;;;20.13;;
44048;SDS011;29717;47.028;15.470;2024-03-06T07:22:52;27.77;;;18.67;;
44048;SDS011;29717;47.028;15.470;2024-03-06T07:25:19;27.10;;;20.10;;
44048;SDS011;29717;47.028;15.470;2024-03-06T07:27:45;29.02;;;21.48;;
44048;SDS011;29717;47.028;15.470;2024-03-06T07:30:14;28.15;;;21.35;;
44048;SDS011;29717;47.028;15.470;2024-03-06T07:32:41;37.47;;;22.33;;
44048;SDS011;29717;47.028;15.470;2024-03-06T07:35:08;31.80;;;21.92;;
44048;SDS011;29717;47.028;15.470;2024-03-06T07:37:35;27.20;;;21.33;;
44048;SDS011;29717;47.028;15.470;2024-03-06T07:40:02;31.55;;;21.38;;
44048;SDS011;29717;47.028;15.470;2024-03-06T07:42:30;28.23;;;18.70;;
44048;SDS011;29717;47.028;15.470;2024-03-06T07:44:57;28.77;;;20.35;;
44048;SDS011;29717;47.028;15.470;2024-03-06T07:47:25;26.48;;;19.55;;
44048;SDS011;29717;47.028;15.470;2024-03-06T07:49:52;26.63;;;18.33;;
44048;SDS011;29717;47.028;15.470;2024-03-06T07:52:18;27.85;;;18.45;;
44048;SDS011;29717;47.028;15.470;2024-03-06T07:54:45;28.80;;;18.13;;
44048;SDS011;29717;47.028;15.470;2024-03-06T07:57:12;28.25;;;18.00;;
44048;SDS011;29717;47.028;15.470;2024-03-06T07:59:39;23.50;;;17.13;;
44048;SDS011;29717;47.028;15.470;2024-03-06T08:02:05;27.40;;;18.80;;
44048;SDS011;29717;47.028;15.470;2024-03-06T08:04:34;23.17;;;16.92;;
44048;SDS011;29717;47.028;15.470;2024-03-06T08:07:01;22.45;;;16.95;;
44048;SDS011;29717;47.028;15.470;2024-03-06T08:09:28;27.85;;;18.92;;
44048;SDS011;29717;47.028;15.470;2024-03-06T08:11:55;25.45;;;17.33;;
44048;SDS011;29717;47.028;15.470;2024-03-06T08:14:22;23.73;;;17.17;;
44048;SDS011;29717;47.028;15.470;2024-03-06T08:16:49;25.85;;;17.88;;
44048;SDS011;29717;47.028;15.470;2024-03-06T08:19:15;23.73;;;16.88;;
44048;SDS011;29717;47.028;15.470;2024-03-06T08:21:44;25.48;;;17.70;;
44048;SDS011;29717;47.028;15.470;2024-03-06T08:24:11;23.83;;;17.75;;
44048;SDS011;29717;47.028;15.470;2024-03-06T08:26:38;24.40;;;17.45;;
44048;SDS011;29717;47.028;15.470;2024-03-06T08:29:04;24.15;;;17.02;;
44048;SDS011;29717;47.028;15.470;2024-03-06T08:31:31;23.23;;;17.10;;
44048;SDS011;29717;47.028;15.470;2024-03-06T08:33:58;26.48;;;16.63;;
44048;SDS011;29717;47.028;15.470;2024-03-06T08:36:25;29.85;;;18.55;;
44048;SDS011;29717;47.028;15.470;2024-03-06T08:38:53;23.58;;;19.15;;
44048;SDS011;29717;47.028;15.470;2024-03-06T08:41:19;29.35;;;20.17;;
44048;SDS011;29717;47.028;15.470;2024-03-06T08:43:46;48.97;;;21.88;;
44048;SDS011;29717;47.028;15.470;2024-03-06T08:46:13;35.10;;;20.02;;
44048;SDS011;29717;47.028;15.470;2024-03-06T08:48:40;26.65;;;19.20;;
44048;SDS011;29717;47.028;15.470;2024-03-06T08:51:07;29.98;;;20.60;;
44048;SDS011;29717;47.028;15.470;2024-03-06T08:53:36;32.55;;;21.08;;
44048;SDS011;29717;47.028;15.470;2024-03-06T08:56:05;30.75;;;21.70;;
44048;SDS011;29717;47.028;15.470;2024-03-06T08:58:32;31.15;;;20.88;;
44048;SDS011;29717;47.028;15.470;2024-03-06T09:00:59;35.95;;;22.25;;
44048;SDS011;29717;47.028;15.470;2024-03-06T09:03:26;34.10;;;22.08;;
44048;SDS011;29717;47.028;15.470;2024-03-06T09:05:52;30.38;;;21.63;;
44048;SDS011;29717;47.028;15.470;2024-03-06T09:08:19;31.92;;;21.35;;
44048;SDS011;29717;47.028;15.470;2024-03-06T09:10:46;31.77;;;21.45;;
44048;SDS011;29717;47.028;15.470;2024-03-06T09:13:14;31.00;;;21.25;;
44048;SDS011;29717;47.028;15.470;2024-03-06T09:15:41;31.30;;;21.83;;
44048;SDS011;29717;47.028;15.470;2024-03-06T09:18:07;29.63;;;21.23;;
44048;SDS011;29717;47.028;15.470;2024-03-06T09:20:34;31.30;;;20.77;;
44048;SDS011;29717;47.028;15.470;2024-03-06T09:23:01;25.52;;;20.25;;
44048;SDS011;29717;47.028;15.470;2024-03-06T09:25:28;30.27;;;21.38;;
44048;SDS011;29717;47.028;15.470;2024-03-06T09:27:55;31.92;;;22.25;;
44048;SDS011;29717;47.028;15.470;2024-03-06T09:30:23;28.02;;;20.88;;
44048;SDS011;29717;47.028;15.470;2024-03-06T09:32:50;30.15;;;21.92;;
44048;SDS011;29717;47.028;15.470;2024-03-06T09:35:17;30.10;;;22.75;;
44048;SDS011;29717;47.028;15.470;2024-03-06T09:37:44;30.98;;;22.00;;
44048;SDS011;29717;47.028;15.470;2024-03-06T09:40:11;30.50;;;22.02;;
44048;SDS011;29717;47.028;15.470;2024-03-06T09:42:45;27.73;;;21.27;;
44048;SDS011;29717;47.028;15.470;2024-03-06T09:45:12;33.22;;;21.45;;
44048;SDS011;29717;47.028;15.470;2024-03-06T09:47:40;28.17;;;20.42;;
44048;SDS011;29717;47.028;15.470;2024-03-06T09:50:08;28.10;;;21.48;;
44048;SDS011;29717;47.028;15.470;2024-03-06T09:52:35;31.98;;;22.17;;
44048;SDS011;29717;47.028;15.470;2024-03-06T09:55:02;31.83;;;21.38;;
44048;SDS011;29717;47.028;15.470;2024-03-06T09:57:30;29.20;;;20.75;;
44048;SDS011;29717;47.028;15.470;2024-03-06T09:59:57;30.88;;;22.48;;
44048;SDS011;29717;47.028;15.470;2024-03-06T10:02:28;30.98;;;22.17;;
44048;SDS011;29717;47.028;15.470;2024-03-06T10:04:58;29.80;;;22.00;;
44048;SDS011;29717;47.028;15.470;2024-03-06T10:07:25;28.65;;;21.77;;
44048;SDS011;29717;47.028;15.470;2024-03-06T10:09:52;30.67;;;21.65;;
44048;SDS011;29717;47.028;15.470;2024-03-06T10:12:19;33.20;;;24.15;;
44048;SDS011;29717;47.028;15.470;2024-03-06T10:14:49;32.22;;;23.63;;
44048;SDS011;29717;47.028;15.470;2024-03-06T10:17:18;34.85;;;23.45;;
44048;SDS011;29717;47.028;15.470;2024-03-06T10:19:48;30.80;;;22.40;;
44048;SDS011;29717;47.028;15.470;2024-03-06T10:22:19;29.75;;;22.35;;
44048;SDS011;29717;47.028;15.470;2024-03-06T10:24:45;30.27;;;22.48;;
44048;SDS011;29717;47.028;15.470;2024-03-06T10:27:14;29.15;;;22.08;;
44048;SDS011;29717;47.028;15.470;2024-03-06T10:29:41;32.20;;;23.65;;
44048;SDS011;29717;47.028;15.470;2024-03-06T10:32:09;28.08;;;22.38;;
44048;SDS011;29717;47.028;15.470;2024-03-06T10:34:37;30.77;;;22.70;;
44048;SDS011;29717;47.028;15.470;2024-03-06T10:37:03;36.28;;;24.30;;
44048;SDS011;29717;47.028;15.470;2024-03-06T10:39:33;33.25;;;23.95;;
44048;SDS011;29717;47.028;15.470;2024-03-06T10:42:02;29.77;;;22.48;;
44048;SDS011;29717;47.028;15.470;2024-03-06T10:44:31;31.55;;;23.60;;
44048;SDS011;29717;47.028;15.470;2024-03-06T10:47:00;33.47;;;22.42;;
44048;SDS011;29717;47.028;15.470;2024-03-06T10:49:27;30.73;;;22.67;;
44048;SDS011;29717;47.028;15.470;2024-03-06T10:51:57;34.20;;;23.58;;
44048;SDS011;29717;47.028;15.470;2024-03-06T10:54:26;31.17;;;22.48;;
44048;SDS011;29717;47.028;15.470;2024-03-06T10:56:54;31.33;;;23.27;;
44048;SDS011;29717;47.028;15.470;2024-03-06T10:59:21;30.08;;;20.73;;
44048;SDS011;29717;47.028;15.470;2024-03-06T11:01:52;29.63;;;22.25;;
44048;SDS011;29717;47.028;15.470;2024-03-06T11:04:20;28.30;;;22.50;;
44048;SDS011;29717;47.028;15.470;2024-03-06T11:06:46;28.00;;;22.15;;
44048;SDS011;29717;47.028;15.470;2024-03-06T11:09:14;28.48;;;21.67;;
44048;SDS011;29717;47.028;15.470;2024-03-06T11:11:47;30.17;;;21.05;;
44048;SDS011;29717;47.028;15.470;2024-03-06T11:14:16;29.90;;;22.55;;
44048;SDS011;29717;47.028;15.470;2024-03-06T11:19:24;35.38;;;23.40;;
44048;SDS011;29717;47.028;15.470;2024-03-06T11:21:50;32.90;;;21.30;;
44048;SDS011;29717;47.028;15.470;2024-03-06T11:24:18;27.38;;;19.92;;
44048;SDS011;29717;47.028;15.470;2024-03-06T11:26:46;32.45;;;20.27;;
44048;SDS011;29717;47.028;15.470;2024-03-06T11:29:16;25.13;;;19.50;;
44048;SDS011;29717;47.028;15.470;2024-03-06T11:31:59;28.35;;;20.08;;
44048;SDS011;29717;47.028;15.470;2024-03-06T11:34:27;29.23;;;19.90;;
44048;SDS011;29717;47.028;15.470;2024-03-06T11:36:56;28.63;;;20.63;;
44048;SDS011;29717;47.028;15.470;2024-03-06T11:39:23;29.40;;;20.13;;
44048;SDS011;29717;47.028;15.470;2024-03-06T11:41:50;28.33;;;20.02;;
44048;SDS011;29717;47.028;15.470;2024-03-06T11:44:19;28.85;;;20.13;;
44048;SDS011;29717;47.028;15.470;2024-03-06T11:46:48;30.42;;;21.98;;
44048;SDS011;29717;47.028;15.470;2024-03-06T11:49:15;27.60;;;20.05;;
44048;SDS011;29717;47.028;15.470;2024-03-06T11:51:46;26.10;;;19.85;;
44048;SDS011;29717;47.028;15.470;2024-03-06T11:54:13;30.00;;;20.42;;
44048;SDS011;29717;47.028;15.470;2024-03-06T11:56:40;29.45;;;21.15;;
44048;SDS011;29717;47.028;15.470;2024-03-06T11:59:07;25.55;;;20.50;;
44048;SDS011;29717;47.028;15.470;2024-03-06T12:01:36;30.45;;;22.10;;
44048;SDS011;29717;47.028;15.470;2024-03-06T12:04:03;37.97;;;21.92;;
44048;SDS011;29717;47.028;15.470;2024-03-06T12:06:31;26.83;;;21.02;;
44048;SDS011;29717;47.028;15.470;2024-03-06T12:08:58;27.20;;;20.88;;
44048;SDS011;29717;47.028;15.470;2024-03-06T12:11:25;28.05;;;21.77;;
44048;SDS011;29717;47.028;15.470;2024-03-06T12:13:53;30.23;;;20.63;;
44048;SDS011;29717;47.028;15.470;2024-03-06T12:16:20;26.45;;;20.60;;
44048;SDS011;29717;47.028;15.470;2024-03-06T12:18:55;27.92;;;20.75;;
44048;SDS011;29717;47.028;15.470;2024-03-06T12:21:23;26.17;;;20.95;;
44048;SDS011;29717;47.028;15.470;2024-03-06T12:24:01;29.17;;;21.48;;
44048;SDS011;29717;47.028;15.470;2024-03-06T12:26:28;29.42;;;21.67;;
44048;SDS011;29717;47.028;15.470;2024-03-06T12:29:03;33.75;;;21.00;;
44048;SDS011;29717;47.028;15.470;2024-03-06T12:31:30;25.77;;;20.55;;
44048;SDS011;29717;47.028;15.470;2024-03-06T12:33:59;27.70;;;19.92;;
44048;SDS011;29717;47.028;15.470;2024-03-06T12:36:27;23.90;;;19.35;;
44048;SDS011;29717;47.028;15.470;2024-03-06T12:38:55;27.50;;;21.02;;
44048;SDS011;29717;47.028;15.470;2024-03-06T12:41:22;28.35;;;19.75;;
44048;SDS011;29717;47.028;15.470;2024-03-06T12:43:48;26.13;;;19.75;;
44048;SDS011;29717;47.028;15.470;2024-03-06T12:46:15;24.30;;;19.42;;
44048;SDS011;29717;47.028;15.470;2024-03-06T12:48:42;25.60;;;19.20;;
44048;SDS011;29717;47.028;15.470;2024-03-06T12:51:11;22.60;;;17.75;;
44048;SDS011;29717;47.028;15.470;2024-03-06T12:53:38;21.40;;;18.17;;
44048;SDS011;29717;47.028;15.470;2024-03-06T12:56:05;25.88;;;18.48;;
44048;SDS011;29717;47.028;15.470;2024-03-06T12:58:32;22.75;;;19.00;;
44048;SDS011;29717;47.028;15.470;2024-03-06T13:01:00;23.40;;;19.25;;
44048;SDS011;29717;47.028;15.470;2024-03-06T13:03:27;21.85;;;17.50;;
44048;SDS011;29717;47.028;15.470;2024-03-06T13:05:53;21.30;;;18.98;;
44048;SDS011;29717;47.028;15.470;2024-03-06T13:08:22;22.67;;;18.23;;
44048;SDS011;29717;47.028;15.470;2024-03-06T13:10:49;21.08;;;18.40;;
44048;SDS011;29717;47.028;15.470;2024-03-06T13:13:15;24.50;;;19.58;;
44048;SDS011;29717;47.028;15.470;2024-03-06T13:15:42;22.23;;;17.58;;
44048;SDS011;29717;47.028;15.470;2024-03-06T13:18:09;25.02;;;18.90;;
44048;SDS011;29717;47.028;15.470;2024-03-06T13:20:36;21.92;;;17.83;;
44048;SDS011;29717;47.028;15.470;2024-03-06T13:23:02;23.77;;;17.98;;
44048;SDS011;29717;47.028;15.470;2024-03-06T13:25:31;21.98;;;18.40;;
44048;SDS011;29717;47.028;15.470;2024-03-06T13:27:57;22.33;;;17.90;;
44048;SDS011;29717;47.028;15.470;2024-03-06T13:30:25;21.92;;;18.40;;
44048;SDS011;29717;47.028;15.470;2024-03-06T13:32:52;22.40;;;18.42;;
44048;SDS011;29717;47.028;15.470;2024-03-06T13:35:19;21.75;;;18.08;;
44048;SDS011;29717;47.028;15.470;2024-03-06T13:37:46;21.40;;;19.10;;
44048;SDS011;29717;47.028;15.470;2024-03-06T13:40:14;20.73;;;18.63;;
44048;SDS011;29717;47.028;15.470;2024-03-06T13:42:42;20.50;;;18.30;;
44048;SDS011;29717;47.028;15.470;2024-03-06T13:45:09;27.42;;;19.05;;
44048;SDS011;29717;47.028;15.470;2024-03-06T13:47:38;22.70;;;18.95;;
44048;SDS011;29717;47.028;15.470;2024-03-06T13:50:06;21.70;;;18.77;;
44048;SDS011;29717;47.028;15.470;2024-03-06T13:52:33;22.30;;;18.67;;
44048;SDS011;29717;47.028;15.470;2024-03-06T13:55:00;25.55;;;19.08;;
44048;SDS011;29717;47.028;15.470;2024-03-06T13:57:27;24.38;;;19.23;;
44048;SDS011;29717;47.028;15.470;2024-03-06T13:59:56;21.00;;;18.38;;
44048;SDS011;29717;47.028;15.470;2024-03-06T14:02:22;23.70;;;19.17;;
44048;SDS011;29717;47.028;15.470;2024-03-06T14:04:49;24.05;;;19.80;;
44048;SDS011;29717;47.028;15.470;2024-03-06T14:07:16;21.38;;;18.80;;
44048;SDS011;29717;47.028;15.470;2024-03-06T14:09:43;24.05;;;18.92;;
44048;SDS011;29717;47.028;15.470;2024-03-06T14:12:10;25.63;;;19.52;;